Celebrity Mercury — 9HJG9 — position and weather

sailwx.info

Track history (hours):
 
Tides and Currents Weather Stations Pressure Air Temp Water Temp Dewpoint Dewpoint Depression Visibility Wind Speed Wind Dir Waves Ship Positions

Celebrity Mercury

Last reported at 2017-Apr-28 02:30 UTC. Time now 2017-Apr-28 02:33 UTC.
Position N 39°27' E 001°45'.

Length 264 m; draft 8.5 m.

Type: Passenger vessel. MMSI: 249053000.

Date/timePositionNaut miles runAvg speedWind from/ knotsBaromVisibWave heightAir tempDewpointWater temp
2017-Apr-28 02:30N 39°27' E 001°45'816.0
2017-Apr-28 02:00N 39°34' E 001°50'816.6
2017-Apr-28 01:30N 39°42' E 001°51'816.7
2017-Apr-28 01:00N 39°51' E 001°53'816.6
2017-Apr-28 00:30N 39°59' E 001°55'816.8
2017-Apr-28 00:00N 40°07' E 001°56'817.1
2017-Apr-27 23:30N 40°16' E 001°58'816.9
2017-Apr-27 23:00N 40°24' E 001°60'1016.7
2017-Apr-27 22:23N 40°34' E 002°02'616.5
2017-Apr-27 22:00N 40°40' E 002°03'816.9
2017-Apr-27 21:30N 40°49' E 002°03'917.2
2017-Apr-27 21:00N 40°57' E 002°04'817.0
2017-Apr-27 20:30N 41°06' E 002°04'8 0.5
2017-Apr-27 04:48N 41°13' E 002°09'411.5
2017-Apr-27 04:30N 41°10' E 002°08'4 8.3
2017-Apr-27 04:00N 41°06' E 002°06'4 8.5
2017-Apr-27 03:30N 41°02' E 002°04'4 8.7
2017-Apr-27 03:00N 40°58' E 002°02'4 8.7
2017-Apr-27 02:30N 40°54' E 002°00'4 8.8
2017-Apr-27 02:00N 40°50' E 001°58'4 8.9
2017-Apr-27 01:30N 40°46' E 001°56'4 8.8
2017-Apr-27 01:00N 40°42' E 001°54'4 8.7
2017-Apr-27 00:30N 40°37' E 001°52'4 8.8
2017-Apr-27 00:00N 40°33' E 001°50'4 8.9
2017-Apr-26 23:30N 40°29' E 001°48'4 8.9
2017-Apr-26 23:00N 40°25' E 001°46'5 8.9
2017-Apr-26 22:30N 40°21' E 001°44'4 9.0
2017-Apr-26 22:00N 40°17' E 001°42'4 8.9
2017-Apr-26 21:30N 40°12' E 001°40'4 8.8
2017-Apr-26 21:00N 40°08' E 001°38'4 8.7
2017-Apr-26 20:30N 40°04' E 001°36'4 8.7
2017-Apr-26 20:00N 40°00' E 001°34'4 8.5
2017-Apr-26 19:30N 39°56' E 001°33'4 8.4
2017-Apr-26 19:00N 39°52' E 001°31'4 8.5
2017-Apr-26 18:30N 39°48' E 001°29'4 8.5
2017-Apr-26 18:00N 39°44' E 001°27'4 8.7
2017-Apr-26 17:30N 39°40' E 001°25'5 9.1
2017-Apr-26 16:59N 39°36' E 001°23'4 9.4
2017-Apr-26 16:30N 39°31' E 001°21'5 9.3
2017-Apr-26 16:00N 39°27' E 001°19'5 9.4
2017-Apr-26 15:30N 39°23' E 001°17'5 9.2
2017-Apr-26 15:00N 39°18' E 001°15'5 9.1
2017-Apr-26 14:30N 39°14' E 001°13'9 9.1
2017-Apr-26 13:30N 39°05' E 001°09'8 9.2
2017-Apr-26 12:39N 38°58' E 001°05'2 9.3
2017-Apr-26 12:26N 38°56' E 001°06'9 9.3
2017-Apr-26 11:27N 38°48' E 001°11'4 9.3
2017-Apr-26 11:00N 38°44' E 001°13'5 9.4
2017-Apr-26 10:30N 38°40' E 001°17'4 8.8
2017-Apr-26 10:00N 38°37' E 001°20'4 7.8
2017-Apr-26 09:30N 38°35' E 001°25'4 8.2
2017-Apr-26 09:00N 38°36' E 001°30'4 8.2
2017-Apr-26 08:30N 38°35' E 001°35'4 8.1
2017-Apr-26 08:00N 38°37' E 001°40'4 8.7
2017-Apr-26 07:30N 38°40' E 001°44'4 8.2
2017-Apr-26 07:00N 38°43' E 001°48'4 7.3
2017-Apr-26 06:30N 38°45' E 001°51'4 7.2
2017-Apr-26 06:00N 38°47' E 001°55'4 7.4
2017-Apr-26 05:30N 38°49' E 001°59'4 7.6
2017-Apr-26 05:00N 38°51' E 002°03'4 7.6
2017-Apr-26 04:30N 38°54' E 002°07'4 7.5
2017-Apr-26 04:00N 38°56' E 002°11'4 7.5
2017-Apr-26 03:30N 38°58' E 002°15'4 7.8
2017-Apr-26 03:00N 39°00' E 002°19'4 7.9
2017-Apr-26 02:30N 39°03' E 002°23'4 7.9
2017-Apr-26 02:00N 39°05' E 002°27'4 7.6
2017-Apr-26 01:30N 39°08' E 002°31'4 8.2
2017-Apr-26 01:00N 39°12' E 002°32'4 8.3
2017-Apr-26 00:30N 39°16' E 002°33'4 8.2
2017-Apr-26 00:00N 39°20' E 002°34'4 8.4
2017-Apr-25 23:30N 39°24' E 002°36'4 8.5
2017-Apr-25 23:00N 39°28' E 002°37'4 7.8
2017-Apr-25 22:30N 39°32' E 002°38'1 2.1
2017-Apr-25 22:00N 39°31' E 002°39'1 1.3
2017-Apr-25 21:30N 39°30' E 002°39'2 4.6
2017-Apr-25 21:00N 39°28' E 002°38'4 7.1
2017-Apr-25 20:30N 39°32' E 002°38'1 0.1
2017-Apr-25 06:58N 39°33' E 002°38'0 0.0
2017-Apr-25 06:28N 39°33' E 002°38'0 0.0
2017-Apr-25 05:58N 39°33' E 002°38'0 0.0
2017-Apr-25 05:28N 39°33' E 002°38'0 0.0
2017-Apr-25 04:58N 39°33' E 002°38'0 0.0
2017-Apr-25 04:28N 39°33' E 002°38'0 0.0
2017-Apr-25 03:58N 39°33' E 002°38'0 0.0
2017-Apr-25 03:28N 39°33' E 002°38'0 0.0
2017-Apr-25 02:58N 39°33' E 002°38'0 0.0
2017-Apr-25 02:28N 39°33' E 002°38'0 0.0
2017-Apr-25 01:58N 39°33' E 002°38'0 0.0
2017-Apr-25 01:30N 39°33' E 002°38'1 1.1
2017-Apr-25 01:00N 39°33' E 002°39'3 6.4
2017-Apr-25 00:30N 39°30' E 002°38'4 8.2
2017-Apr-25 00:00N 39°26' E 002°36'4 8.1
2017-Apr-24 23:30N 39°23' E 002°33'5 9.8
2017-Apr-24 23:00N 39°19' E 002°30'713.3
2017-Apr-24 22:30N 39°13' E 002°25'713.2
2017-Apr-24 21:59N 39°07' E 002°20'613.7
2017-Apr-24 21:30N 39°02' E 002°15'713.7
2017-Apr-24 21:00N 38°56' E 002°11'713.7
2017-Apr-24 20:30N 38°51' E 002°06'713.9
2017-Apr-24 20:00N 38°45' E 002°01'713.8
2017-Apr-24 19:30N 38°39' E 001°56'713.7
2017-Apr-24 19:00N 38°33' E 001°51'713.8
2017-Apr-24 18:30N 38°28' E 001°45'714.0
2017-Apr-24 18:00N 38°24' E 001°38'714.1
2017-Apr-24 17:30N 38°20' E 001°30'714.3
2017-Apr-24 17:00N 38°16' E 001°23'1414.1
2017-Apr-24 15:59N 38°08' E 001°08'713.9
2017-Apr-24 15:29N 38°05' E 001°00'713.9
2017-Apr-24 15:00N 38°01' E 000°53'714.1
2017-Apr-24 14:30N 37°57' E 000°46'1414.0
2017-Apr-24 13:30N 37°50' E 000°30'713.7
2017-Apr-24 13:00N 37°45' E 000°24'713.4
2017-Apr-24 12:29N 37°41' E 000°17'613.3
2017-Apr-24 12:01N 37°37' E 000°11'713.0
2017-Apr-24 11:30N 37°33' E 000°04'713.2
2017-Apr-24 11:00N 37°31' W 000°04'713.3
2017-Apr-24 10:30N 37°27' W 000°11'713.3
2017-Apr-24 10:00N 37°23' W 000°18'713.5
2017-Apr-24 09:30N 37°19' W 000°25'713.5
2017-Apr-24 08:59N 37°15' W 000°32'713.1
2017-Apr-24 08:29N 37°12' W 000°38'613.0
2017-Apr-24 08:00N 37°08' W 000°45'812.8
2017-Apr-24 07:24N 37°03' W 000°52'612.7
2017-Apr-24 06:57N 37°00' W 000°59'612.8
2017-Apr-24 06:30N 36°58' W 001°05'713.1
2017-Apr-24 06:00N 36°54' W 001°12'713.1
2017-Apr-24 05:30N 36°50' W 001°19'613.2
2017-Apr-24 05:00N 36°47' W 001°25'813.1
2017-Apr-24 04:23N 36°42' W 001°34'11912.5
2017-Apr-23 18:52N 36°37' W 004°02'  
2017-Apr-21 10:58N 37°06' W 000°54'613.9
2017-Apr-21 10:30N 37°10' W 000°47'14715.3
2017-Apr-21 00:54N 38°31' E 001°48'715.8
2017-Apr-21 00:28N 38°36' E 001°53'716.1
2017-Apr-21 00:00N 38°43' E 001°59'816.3
2017-Apr-20 23:30N 38°49' E 002°04'816.4
2017-Apr-20 23:00N 38°56' E 002°10'1816.5
2017-Apr-20 21:56N 39°11' E 002°23'716.6
2017-Apr-20 21:30N 39°17' E 002°28'816.6
2017-Apr-20 21:00N 39°24' E 002°34'815.5
2017-Apr-20 20:30N 39°31' E 002°39'2 4.6
2017-Apr-20 19:59N 39°33' E 002°38'0 0.0
2017-Apr-20 19:29N 39°33' E 002°38'0 0.0
2017-Apr-20 18:59N 39°33' E 002°38'0 0.0
2017-Apr-20 17:47N 39°33' E 002°38'0 0.0
2017-Apr-20 17:29N 39°33' E 002°38'0 0.0
2017-Apr-20 16:59N 39°33' E 002°38'0 0.0
2017-Apr-20 16:29N 39°33' E 002°38'0 0.0
2017-Apr-20 15:59N 39°33' E 002°38'0 0.0
2017-Apr-20 15:29N 39°33' E 002°38'0 0.0
2017-Apr-20 14:59N 39°33' E 002°38'0 0.0
2017-Apr-20 14:29N 39°33' E 002°38'0 0.0
2017-Apr-20 07:35N 39°33' E 002°38'0 0.0
2017-Apr-20 07:23N 39°33' E 002°38'0 0.0
2017-Apr-20 06:59N 39°33' E 002°38'0 0.0
2017-Apr-20 06:29N 39°33' E 002°38'0 0.0
2017-Apr-20 05:59N 39°33' E 002°38'0 0.0
2017-Apr-20 05:29N 39°33' E 002°38'0 0.0
2017-Apr-20 04:59N 39°33' E 002°38'0 0.0
2017-Apr-20 04:29N 39°33' E 002°38'0 0.0
2017-Apr-20 03:59N 39°33' E 002°38'0 0.0
2017-Apr-20 03:29N 39°33' E 002°38'0 0.0
2017-Apr-20 02:59N 39°33' E 002°38'0 0.0
2017-Apr-20 02:29N 39°33' E 002°38'0 0.0
2017-Apr-20 01:59N 39°33' E 002°38'0 0.0
2017-Apr-20 01:30N 39°33' E 002°38'1 1.4
2017-Apr-20 01:00N 39°32' E 002°39'611.3
2017-Apr-20 00:30N 39°28' E 002°35'816.4
2017-Apr-20 00:00N 39°25' E 002°25'917.6
2017-Apr-19 23:30N 39°30' E 002°16'816.0
2017-Apr-19 23:00N 39°38' E 002°11'917.7
2017-Apr-19 22:30N 39°47' E 002°11'917.8
2017-Apr-19 22:00N 39°55' E 002°11'917.5
2017-Apr-19 21:30N 40°04' E 002°11'917.3
2017-Apr-19 21:00N 40°13' E 002°11'917.5
2017-Apr-19 20:30N 40°22' E 002°11'917.6
2017-Apr-19 20:00N 40°30' E 002°11'917.8
2017-Apr-19 19:30N 40°39' E 002°11'917.7
2017-Apr-19 19:00N 40°48' E 002°11'918.1
2017-Apr-19 18:30N 40°57' E 002°11'917.7
2017-Apr-19 18:00N 41°06' E 002°10'917.5
2017-Apr-19 17:30N 41°15' E 002°11'1 0.0
2017-Apr-19 04:25N 41°15' E 002°11'3 7.3
2017-Apr-19 03:57N 41°12' E 002°10'3 7.7
2017-Apr-19 03:30N 41°09' E 002°08'4 7.7
2017-Apr-19 03:00N 41°05' E 002°05'4 7.4
2017-Apr-19 02:30N 41°02' E 002°02'4 7.5
2017-Apr-19 02:00N 40°59' E 001°60'4 8.9
2017-Apr-19 01:30N 40°55' E 001°58'815.0
2017-Apr-19 01:00N 40°49' E 001°52'815.5
2017-Apr-19 00:30N 40°42' E 001°47'816.2
2017-Apr-19 00:00N 40°36' E 001°40'816.6
2017-Apr-18 23:30N 40°29' E 001°33'817.2
2017-Apr-18 23:00N 40°22' E 001°29'816.6
2017-Apr-18 22:30N 40°15' E 001°22'816.6
2017-Apr-18 22:00N 40°07' E 001°18'816.3
2017-Apr-18 21:30N 40°00' E 001°12'816.5
2017-Apr-18 21:00N 39°53' E 001°07'815.9
2017-Apr-18 20:30N 39°48' E 000°60'816.7
2017-Apr-18 20:00N 39°45' E 000°49'816.9
2017-Apr-18 19:30N 39°42' E 000°39'3316.1
2017-Apr-18 17:26N 39°30' W 000°01'613.7
2017-Apr-18 17:00N 39°28' W 000°08'713.4
2017-Apr-18 16:31N 39°26' W 000°17'3 5.1
2017-Apr-18 16:01N 39°27' W 000°19'0 0.0
2017-Apr-18 15:29N 39°27' W 000°19'0 0.0
2017-Apr-18 14:59N 39°27' W 000°19'0 0.0
2017-Apr-18 14:29N 39°27' W 000°19'0 0.0
2017-Apr-18 13:29N 39°27' W 000°19'0 0.0
2017-Apr-18 12:59N 39°27' W 000°19'0 0.0
2017-Apr-18 12:29N 39°27' W 000°19'0 0.0
2017-Apr-18 11:59N 39°27' W 000°19'0 0.0
2017-Apr-18 11:29N 39°27' W 000°19'0 0.0
2017-Apr-18 10:59N 39°27' W 000°19'0 0.0
2017-Apr-18 10:29N 39°27' W 000°19'0 0.0
2017-Apr-18 09:59N 39°27' W 000°19'0 0.0
2017-Apr-18 09:29N 39°27' W 000°19'0 0.0
2017-Apr-18 08:59N 39°27' W 000°19'0 0.0
2017-Apr-18 08:29N 39°27' W 000°19'0 0.0
2017-Apr-18 07:59N 39°27' W 000°19'0 0.0
2017-Apr-18 07:29N 39°27' W 000°19'0 0.0
2017-Apr-18 06:59N 39°27' W 000°19'0 0.0
2017-Apr-18 06:29N 39°27' W 000°19'0 0.0
2017-Apr-18 06:00N 39°27' W 000°19'1 1.6
2017-Apr-18 05:30N 39°27' W 000°19'3 6.6
2017-Apr-18 05:00N 39°25' W 000°15'4 9.0
2017-Apr-18 04:30N 39°23' W 000°10'7 8.3
2017-Apr-18 03:43N 39°18' W 000°04'  
Track history (hours):
 
Tides and Currents Weather Stations Pressure Air Temp Water Temp Dewpoint Dewpoint Depression Visibility Wind Speed Wind Dir Waves Ship Positions

Celebrity Mercury

Last reported at 2017-Apr-28 02:30 UTC. Time now 2017-Apr-28 02:33 UTC.
Position N 39°27' E 001°45'.

Length 264 m; draft 8.5 m.

Type: Passenger vessel. MMSI: 249053000.

Date/timePositionNaut miles runAvg speedWind from/ knotsBaromVisibWave heightAir tempDewpointWater temp
2017-Apr-28 02:30N 39°27' E 001°45'816.0
2017-Apr-28 02:00N 39°34' E 001°50'816.6
2017-Apr-28 01:30N 39°42' E 001°51'816.7
2017-Apr-28 01:00N 39°51' E 001°53'816.6
2017-Apr-28 00:30N 39°59' E 001°55'816.8
2017-Apr-28 00:00N 40°07' E 001°56'817.1
2017-Apr-27 23:30N 40°16' E 001°58'816.9
2017-Apr-27 23:00N 40°24' E 001°60'1016.7
2017-Apr-27 22:23N 40°34' E 002°02'616.5
2017-Apr-27 22:00N 40°40' E 002°03'816.9
2017-Apr-27 21:30N 40°49' E 002°03'917.2
2017-Apr-27 21:00N 40°57' E 002°04'817.0
2017-Apr-27 20:30N 41°06' E 002°04'8 0.5
2017-Apr-27 04:48N 41°13' E 002°09'411.5
2017-Apr-27 04:30N 41°10' E 002°08'4 8.3
2017-Apr-27 04:00N 41°06' E 002°06'4 8.5
2017-Apr-27 03:30N 41°02' E 002°04'4 8.7
2017-Apr-27 03:00N 40°58' E 002°02'4 8.7
2017-Apr-27 02:30N 40°54' E 002°00'4 8.8
2017-Apr-27 02:00N 40°50' E 001°58'4 8.9
2017-Apr-27 01:30N 40°46' E 001°56'4 8.8
2017-Apr-27 01:00N 40°42' E 001°54'4 8.7
2017-Apr-27 00:30N 40°37' E 001°52'4 8.8
2017-Apr-27 00:00N 40°33' E 001°50'4 8.9
2017-Apr-26 23:30N 40°29' E 001°48'4 8.9
2017-Apr-26 23:00N 40°25' E 001°46'5 8.9
2017-Apr-26 22:30N 40°21' E 001°44'4 9.0
2017-Apr-26 22:00N 40°17' E 001°42'4 8.9
2017-Apr-26 21:30N 40°12' E 001°40'4 8.8
2017-Apr-26 21:00N 40°08' E 001°38'4 8.7
2017-Apr-26 20:30N 40°04' E 001°36'4 8.7
2017-Apr-26 20:00N 40°00' E 001°34'4 8.5
2017-Apr-26 19:30N 39°56' E 001°33'4 8.4
2017-Apr-26 19:00N 39°52' E 001°31'4 8.5
2017-Apr-26 18:30N 39°48' E 001°29'4 8.5
2017-Apr-26 18:00N 39°44' E 001°27'4 8.7
2017-Apr-26 17:30N 39°40' E 001°25'5 9.1
2017-Apr-26 16:59N 39°36' E 001°23'4 9.4
2017-Apr-26 16:30N 39°31' E 001°21'5 9.3
2017-Apr-26 16:00N 39°27' E 001°19'5 9.4
2017-Apr-26 15:30N 39°23' E 001°17'5 9.2
2017-Apr-26 15:00N 39°18' E 001°15'5 9.1
2017-Apr-26 14:30N 39°14' E 001°13'9 9.1
2017-Apr-26 13:30N 39°05' E 001°09'8 9.2
2017-Apr-26 12:39N 38°58' E 001°05'2 9.3
2017-Apr-26 12:26N 38°56' E 001°06'9 9.3
2017-Apr-26 11:27N 38°48' E 001°11'4 9.3
2017-Apr-26 11:00N 38°44' E 001°13'5 9.4
2017-Apr-26 10:30N 38°40' E 001°17'4 8.8
2017-Apr-26 10:00N 38°37' E 001°20'4 7.8
2017-Apr-26 09:30N 38°35' E 001°25'4 8.2
2017-Apr-26 09:00N 38°36' E 001°30'4 8.2
2017-Apr-26 08:30N 38°35' E 001°35'4 8.1
2017-Apr-26 08:00N 38°37' E 001°40'4 8.7
2017-Apr-26 07:30N 38°40' E 001°44'4 8.2
2017-Apr-26 07:00N 38°43' E 001°48'4 7.3
2017-Apr-26 06:30N 38°45' E 001°51'4 7.2
2017-Apr-26 06:00N 38°47' E 001°55'4 7.4
2017-Apr-26 05:30N 38°49' E 001°59'4 7.6
2017-Apr-26 05:00N 38°51' E 002°03'4 7.6
2017-Apr-26 04:30N 38°54' E 002°07'4 7.5
2017-Apr-26 04:00N 38°56' E 002°11'4 7.5
2017-Apr-26 03:30N 38°58' E 002°15'4 7.8
2017-Apr-26 03:00N 39°00' E 002°19'4 7.9
2017-Apr-26 02:30N 39°03' E 002°23'4 7.9
2017-Apr-26 02:00N 39°05' E 002°27'4 7.6
2017-Apr-26 01:30N 39°08' E 002°31'4 8.2
2017-Apr-26 01:00N 39°12' E 002°32'4 8.3
2017-Apr-26 00:30N 39°16' E 002°33'4 8.2
2017-Apr-26 00:00N 39°20' E 002°34'4 8.4
2017-Apr-25 23:30N 39°24' E 002°36'4 8.5
2017-Apr-25 23:00N 39°28' E 002°37'4 7.8
2017-Apr-25 22:30N 39°32' E 002°38'1 2.1
2017-Apr-25 22:00N 39°31' E 002°39'1 1.3
2017-Apr-25 21:30N 39°30' E 002°39'2 4.6
2017-Apr-25 21:00N 39°28' E 002°38'4 7.1
2017-Apr-25 20:30N 39°32' E 002°38'1 0.1
2017-Apr-25 06:58N 39°33' E 002°38'0 0.0
2017-Apr-25 06:28N 39°33' E 002°38'0 0.0
2017-Apr-25 05:58N 39°33' E 002°38'0 0.0
2017-Apr-25 05:28N 39°33' E 002°38'0 0.0
2017-Apr-25 04:58N 39°33' E 002°38'0 0.0
2017-Apr-25 04:28N 39°33' E 002°38'0 0.0
2017-Apr-25 03:58N 39°33' E 002°38'0 0.0
2017-Apr-25 03:28N 39°33' E 002°38'0 0.0
2017-Apr-25 02:58N 39°33' E 002°38'0 0.0
2017-Apr-25 02:28N 39°33' E 002°38'0 0.0
2017-Apr-25 01:58N 39°33' E 002°38'0 0.0
2017-Apr-25 01:30N 39°33' E 002°38'1 1.1
2017-Apr-25 01:00N 39°33' E 002°39'3 6.4
2017-Apr-25 00:30N 39°30' E 002°38'4 8.2
2017-Apr-25 00:00N 39°26' E 002°36'4 8.1
2017-Apr-24 23:30N 39°23' E 002°33'5 9.8
2017-Apr-24 23:00N 39°19' E 002°30'713.3
2017-Apr-24 22:30N 39°13' E 002°25'713.2
2017-Apr-24 21:59N 39°07' E 002°20'613.7
2017-Apr-24 21:30N 39°02' E 002°15'713.7
2017-Apr-24 21:00N 38°56' E 002°11'713.7
2017-Apr-24 20:30N 38°51' E 002°06'713.9
2017-Apr-24 20:00N 38°45' E 002°01'713.8
2017-Apr-24 19:30N 38°39' E 001°56'713.7
2017-Apr-24 19:00N 38°33' E 001°51'713.8
2017-Apr-24 18:30N 38°28' E 001°45'714.0
2017-Apr-24 18:00N 38°24' E 001°38'714.1
2017-Apr-24 17:30N 38°20' E 001°30'714.3
2017-Apr-24 17:00N 38°16' E 001°23'1414.1
2017-Apr-24 15:59N 38°08' E 001°08'713.9
2017-Apr-24 15:29N 38°05' E 001°00'713.9
2017-Apr-24 15:00N 38°01' E 000°53'714.1
2017-Apr-24 14:30N 37°57' E 000°46'1414.0
2017-Apr-24 13:30N 37°50' E 000°30'713.7
2017-Apr-24 13:00N 37°45' E 000°24'713.4
2017-Apr-24 12:29N 37°41' E 000°17'613.3
2017-Apr-24 12:01N 37°37' E 000°11'713.0
2017-Apr-24 11:30N 37°33' E 000°04'713.2
2017-Apr-24 11:00N 37°31' W 000°04'713.3
2017-Apr-24 10:30N 37°27' W 000°11'713.3
2017-Apr-24 10:00N 37°23' W 000°18'713.5
2017-Apr-24 09:30N 37°19' W 000°25'713.5
2017-Apr-24 08:59N 37°15' W 000°32'713.1
2017-Apr-24 08:29N 37°12' W 000°38'613.0
2017-Apr-24 08:00N 37°08' W 000°45'812.8
2017-Apr-24 07:24N 37°03' W 000°52'612.7
2017-Apr-24 06:57N 37°00' W 000°59'612.8
2017-Apr-24 06:30N 36°58' W 001°05'713.1
2017-Apr-24 06:00N 36°54' W 001°12'713.1
2017-Apr-24 05:30N 36°50' W 001°19'613.2
2017-Apr-24 05:00N 36°47' W 001°25'813.1
2017-Apr-24 04:23N 36°42' W 001°34'11912.5
2017-Apr-23 18:52N 36°37' W 004°02'  
2017-Apr-21 10:58N 37°06' W 000°54'613.9
2017-Apr-21 10:30N 37°10' W 000°47'14715.3
2017-Apr-21 00:54N 38°31' E 001°48'715.8
2017-Apr-21 00:28N 38°36' E 001°53'716.1
2017-Apr-21 00:00N 38°43' E 001°59'816.3
2017-Apr-20 23:30N 38°49' E 002°04'816.4
2017-Apr-20 23:00N 38°56' E 002°10'1816.5
2017-Apr-20 21:56N 39°11' E 002°23'716.6
2017-Apr-20 21:30N 39°17' E 002°28'816.6
2017-Apr-20 21:00N 39°24' E 002°34'815.5
2017-Apr-20 20:30N 39°31' E 002°39'2 4.6
2017-Apr-20 19:59N 39°33' E 002°38'0 0.0
2017-Apr-20 19:29N 39°33' E 002°38'0 0.0
2017-Apr-20 18:59N 39°33' E 002°38'0 0.0
2017-Apr-20 17:47N 39°33' E 002°38'0 0.0
2017-Apr-20 17:29N 39°33' E 002°38'0 0.0
2017-Apr-20 16:59N 39°33' E 002°38'0 0.0
2017-Apr-20 16:29N 39°33' E 002°38'0 0.0
2017-Apr-20 15:59N 39°33' E 002°38'0 0.0
2017-Apr-20 15:29N 39°33' E 002°38'0 0.0
2017-Apr-20 14:59N 39°33' E 002°38'0 0.0
2017-Apr-20 14:29N 39°33' E 002°38'0 0.0
2017-Apr-20 07:35N 39°33' E 002°38'0 0.0
2017-Apr-20 07:23N 39°33' E 002°38'0 0.0
2017-Apr-20 06:59N 39°33' E 002°38'0 0.0
2017-Apr-20 06:29N 39°33' E 002°38'0 0.0
2017-Apr-20 05:59N 39°33' E 002°38'0 0.0
2017-Apr-20 05:29N 39°33' E 002°38'0 0.0
2017-Apr-20 04:59N 39°33' E 002°38'0 0.0
2017-Apr-20 04:29N 39°33' E 002°38'0 0.0
2017-Apr-20 03:59N 39°33' E 002°38'0 0.0
2017-Apr-20 03:29N 39°33' E 002°38'0 0.0
2017-Apr-20 02:59N 39°33' E 002°38'0 0.0
2017-Apr-20 02:29N 39°33' E 002°38'0 0.0
2017-Apr-20 01:59N 39°33' E 002°38'0 0.0
2017-Apr-20 01:30N 39°33' E 002°38'1 1.4
2017-Apr-20 01:00N 39°32' E 002°39'611.3
2017-Apr-20 00:30N 39°28' E 002°35'816.4
2017-Apr-20 00:00N 39°25' E 002°25'917.6
2017-Apr-19 23:30N 39°30' E 002°16'816.0
2017-Apr-19 23:00N 39°38' E 002°11'917.7
2017-Apr-19 22:30N 39°47' E 002°11'917.8
2017-Apr-19 22:00N 39°55' E 002°11'917.5
2017-Apr-19 21:30N 40°04' E 002°11'917.3
2017-Apr-19 21:00N 40°13' E 002°11'917.5
2017-Apr-19 20:30N 40°22' E 002°11'917.6
2017-Apr-19 20:00N 40°30' E 002°11'917.8
2017-Apr-19 19:30N 40°39' E 002°11'917.7
2017-Apr-19 19:00N 40°48' E 002°11'918.1
2017-Apr-19 18:30N 40°57' E 002°11'917.7
2017-Apr-19 18:00N 41°06' E 002°10'917.5
2017-Apr-19 17:30N 41°15' E 002°11'1 0.0
2017-Apr-19 04:25N 41°15' E 002°11'3 7.3
2017-Apr-19 03:57N 41°12' E 002°10'3 7.7
2017-Apr-19 03:30N 41°09' E 002°08'4 7.7
2017-Apr-19 03:00N 41°05' E 002°05'4 7.4
2017-Apr-19 02:30N 41°02' E 002°02'4 7.5
2017-Apr-19 02:00N 40°59' E 001°60'4 8.9
2017-Apr-19 01:30N 40°55' E 001°58'815.0
2017-Apr-19 01:00N 40°49' E 001°52'815.5
2017-Apr-19 00:30N 40°42' E 001°47'816.2
2017-Apr-19 00:00N 40°36' E 001°40'816.6
2017-Apr-18 23:30N 40°29' E 001°33'817.2
2017-Apr-18 23:00N 40°22' E 001°29'816.6
2017-Apr-18 22:30N 40°15' E 001°22'816.6
2017-Apr-18 22:00N 40°07' E 001°18'816.3
2017-Apr-18 21:30N 40°00' E 001°12'816.5
2017-Apr-18 21:00N 39°53' E 001°07'815.9
2017-Apr-18 20:30N 39°48' E 000°60'816.7
2017-Apr-18 20:00N 39°45' E 000°49'816.9
2017-Apr-18 19:30N 39°42' E 000°39'3316.1
2017-Apr-18 17:26N 39°30' W 000°01'613.7
2017-Apr-18 17:00N 39°28' W 000°08'713.4
2017-Apr-18 16:31N 39°26' W 000°17'3 5.1
2017-Apr-18 16:01N 39°27' W 000°19'0 0.0
2017-Apr-18 15:29N 39°27' W 000°19'0 0.0
2017-Apr-18 14:59N 39°27' W 000°19'0 0.0
2017-Apr-18 14:29N 39°27' W 000°19'0 0.0
2017-Apr-18 13:29N 39°27' W 000°19'0 0.0
2017-Apr-18 12:59N 39°27' W 000°19'0 0.0
2017-Apr-18 12:29N 39°27' W 000°19'0 0.0
2017-Apr-18 11:59N 39°27' W 000°19'0 0.0
2017-Apr-18 11:29N 39°27' W 000°19'0 0.0
2017-Apr-18 10:59N 39°27' W 000°19'0 0.0
2017-Apr-18 10:29N 39°27' W 000°19'0 0.0
2017-Apr-18 09:59N 39°27' W 000°19'0 0.0
2017-Apr-18 09:29N 39°27' W 000°19'0 0.0
2017-Apr-18 08:59N 39°27' W 000°19'0 0.0
2017-Apr-18 08:29N 39°27' W 000°19'0 0.0
2017-Apr-18 07:59N 39°27' W 000°19'0 0.0
2017-Apr-18 07:29N 39°27' W 000°19'0 0.0
2017-Apr-18 06:59N 39°27' W 000°19'0 0.0
2017-Apr-18 06:29N 39°27' W 000°19'0 0.0
2017-Apr-18 06:00N 39°27' W 000°19'1 1.6
2017-Apr-18 05:30N 39°27' W 000°19'3 6.6
2017-Apr-18 05:00N 39°25' W 000°15'4 9.0
2017-Apr-18 04:30N 39°23' W 000°10'7 8.3
2017-Apr-18 03:43N 39°18' W 000°04'  

Dump ship's entire track history